Huvudsida
METAR-TAF:

METAR-TAF

Flygplatser :

Bandar Lengeh Airport

Bandar Lengeh, Iran

latitud: 26-35N, longitud: 054-50E, höjd: 14 m

Aktuellt väderrapport

Denna rapport gjordes för 1 timme och 42 minuter sedan, klockan 00:00 UTC
Vind 4 kt från syd/sydost
Temperatur 29°C
Fuktighet 100%
Tryck 996 hPa
Sikt: 4000 m
fuktdis

METAR: OIBL 180000Z 15004KT 4000 BR NSC 29/29 Q0996

Tid: 06:12 (01:42 UTC)


TAF: saknas

Aktuella väderrapporter och prognoser från 4000 flygplatser (METAR- och TAF-rapporter).

De tillgängliga stationerna syns som gula och röda prickar på kartan.

För musen över prickarna för att se namnen på stationerna.

Klicka sedan för att få väderrapporter och prognoser.

För att ändra kartan: Klicka på de gröna knapparna med ett svart kors på för att zooma in; den gröna knappen med ett streck på för att zooma ut; eller på de gröna pilarna för angränsande kartor.


METAR-TAF: